• Join FlightAware (Why Join?)
  • Login
  • US Flag 
06:17PM EDT


 

Airport Tracker/Info


-or-


 

Live Flight TrackerFlight Track Log ✈ CTL78 ✈ 17-May-2013 ✈ KMBS - KYIP

Flight Track Log - Related Links

Times and Time Zones

All times are in EDT time to prevent confusion due to time zone crossing. See the CTL78 flight status page for this flight to view local times or setup timezone preferences in your user account.

Time Position Orientation Groundspeed Altitude Reporting Facility
EDT Latitude Longitude Course Direction KTS MPH feet Rate Location/Type
08:44PM 43.3619 -84.0057 160° South  Level Estimated
08:45PM 43.3366 -83.9838 148° Southeast  Level FlightAware Approximate
08:46PM 43.3080 -83.9718 160° South  Level Estimated
08:47PM 43.2807 -83.9553 156° South  Level FlightAware Approximate
08:48PM 43.2533 -83.9388 156° South  Level FlightAware Approximate
08:49PM 43.2247 -83.9271 163° South  Level Estimated
08:50PM 43.1965 -83.9134 161° South  Level FlightAware Approximate
08:50PM 43.0231 -83.8292 160° South 171 197 5,000  Level Cleveland Center
08:51PM 43.1683 -83.8997 161° South  Level FlightAware Approximate
08:51PM 42.9675 -83.8036 161° South 170 196 5,000  Level Cleveland Center
08:52PM 43.1401 -83.8861 161° South  Level FlightAware Approximate
08:52PM 42.9283 -83.7847 161° South 169 194 5,000  Level Cleveland Center
08:53PM 43.1115 -83.8746 160° South  Level Estimated
08:53PM 42.8853 -83.7653 162° South 171 197 5,000  Level Cleveland Center
08:54PM 43.0835 -83.8603 160° South  Level FlightAware Approximate
08:54PM 42.8442 -83.7436 159° South 169 194 5,000  Level Cleveland Center
08:55PM 43.0555 -83.8461 160° South  Level FlightAware Approximate
08:55PM 42.7947 -83.7239 164° South 171 197 5,000  Level Cleveland Center
08:56PM 43.0275 -83.8318 160° South  Level FlightAware Approximate
08:56PM 42.7472 -83.7075 166° South 172 198 5,000  Level Cleveland Center
08:57PM 42.7058 -83.6969 169° South 172 198 5,000  Level Cleveland Center
08:58PM 42.6583 -83.6775 163° South 172 198 5,000  Level Cleveland Center
08:59PM 42.6067 -83.6639 169° South 173 199 5,000 -300 Level Cleveland Center
09:00PM 42.5611 -83.6475 165° South 184 212 4,500 -480 Descending Cleveland Center
09:02PM 42.4969 -83.6303 169° South 190 219 4,000 -540 Descending Cleveland Center
09:03PM 42.4472 -83.6194 171° South 179 206 3,400 -480 Descending Cleveland Center
09:04PM 42.4017 -83.6061 168° South 170 196 3,100 -420 Descending Cleveland Center
09:05PM 42.3519 -83.5981 173° South 172 198 2,600 -540 Descending Cleveland Center
09:05PM 42.3081 -83.5958 178° South 174 200 2,100 -480 Descending Cleveland Center
09:07PM 42.2692 -83.5717 155° Southeast 120 138 1,700 -360 Descending Cleveland Center
09:09PM 42.2393 -83.5310 160° South  Level Estimated
09:16PM 42.2393 -83.5310 160° South  Level Estimated
09:17PM 42.2393 -83.5310 160° South  Level Estimated